Hanover, NH

10:44 AM EST on January 30, 2015 (GMT -0500)
Rutland State | Change Station
CLOSE
Current Station
Airport
Location: Rutland,
Elevation: 787 ft
Nearby Weather Stations
Active Advisory: Winter Weather Advisory Active Notice: Public Information Statement

Elev 787 ft 43.53 °N, 72.95 °W | Updated 9 minutes ago

Overcast
Overcast
27 °F
Feels Like 21 °F
N
5
Wind Variable Wind from NNW

Today
High -- | Low -- °F
--% Chance of Precip.
Yesterday
High -- | Low -- °F
Precip. -- in
7:08 AM 4:57 PM
Waxing Gibbous, 83% visible
Pressure 29.78 in
Visibility 0.5 miles
Clouds Scattered Clouds 600 ft
Overcast 1200 ft
Windchill 21 °F
Dew Point 25 °F
Humidity 93%
Rainfall 0.01 in
Snow Depth Not available.
UV 1 out of 12
Pollen .10 out of 12
Air Quality Not available.
Flu Activity Not available.
METAR KRUT 301535Z 34004KT 1/2SM SCT006 OVC012 M03/M04 A2978 RMK AO1 P0001

More Conditions Fewer Conditions

Pressure 29.78 in
Visibility 0.5 miles
Clouds Scattered Clouds 600 ft
Overcast 1200 ft
Windchill 21 °F
Dew Point 25 °F
Humidity 93%
Rainfall 0.01 in
Snow Depth Not available.
UV 1 out of 12
Pollen .10 out of 12
Air Quality Not available.
Flu Activity Not available.
METAR KRUT 301535Z 34004KT 1/2SM SCT006 OVC012 M03/M04 A2978 RMK AO1 P0001

More Conditions Fewer Conditions

10-Day Weather Forecast

Almanac

Astronomy

Jan. 30, 2015 Rise Set
Actual Time
Civil Twilight
Nautical Twilight
Astronomical Twilight
Moon
Length of Visible Light
Length of Day
Tomorrow will be .
, % of the Moon is Illuminated

Today's Extremes

State Highs State Lows

Community

WunderPhotos

Upload Photos

1,791,791 photos uploaded!

WunderBlogs® & News

Nearby

Air Quality

  Air Quality AQ Index Pollutant
Not available.

Snow Depth

Station Depth Elevation

Earthquake Activity

City Distance Mag. Time & Date
Minimum magnitude displayed is 2.5.

Coastal Water Temperatures

Place Temperature

Nearby Weather Stations